<?xml version="1.0" encoding="ISO-8859-1" standalone="yes"?>
<gpx
  xmlns="http://www.topografix.com/GPX/1/1"
  version="1.1" creator="LoadMyTracks/073 http://www.cluetrust.com/LoadMyTracks.html"
  xmlns:xsi="http://www.w3.org/2001/XMLSchema-instance"
  xmlns:gpxdata="http://www.cluetrust.com/XML/GPXDATA/1/0"
  xmlns:geocache="http://www.groundspeak.com/cache/1/0"
  xsi:schemaLocation="http://www.topografix.com/GPX/1/1 http://www.topografix.com/GPX/1/1/gpx.xsd
http://www.cluetrust.com/XML/GPXDATA/1/0 http://www.cluetrust.com/Schemas/gpxdata10.xsd">
<trk>
<name>2010/5/26 9:0:51 GMT</name>
<trkseg>
	<trkpt lat="52.21359" lon="-1.979625"><ele>89.000000</ele><time>2010-05-26T09:00:51Z</time></trkpt>
	<trkpt lat="52.21364167" lon="-1.979546667"><ele>79.000000</ele><time>2010-05-26T09:01:22Z</time></trkpt>
	<trkpt lat="52.21352167" lon="-1.979528333"><ele>107.000000</ele><time>2010-05-26T09:01:52Z</time></trkpt>
	<trkpt lat="52.21351333" lon="-1.979466667"><ele>106.000000</ele><time>2010-05-26T09:02:22Z</time></trkpt>
	<trkpt lat="52.21353667" lon="-1.979526667"><ele>96.000000</ele><time>2010-05-26T09:02:52Z</time></trkpt>
	<trkpt lat="52.213605" lon="-1.979561667"><ele>92.000000</ele><time>2010-05-26T09:03:22Z</time></trkpt>
	<trkpt lat="52.21374167" lon="-1.979636667"><ele>92.000000</ele><time>2010-05-26T09:03:52Z</time></trkpt>
	<trkpt lat="52.213785" lon="-1.979198333"><ele>91.000000</ele><time>2010-05-26T09:04:22Z</time></trkpt>
	<trkpt lat="52.21366833" lon="-1.978968333"><ele>92.000000</ele><time>2010-05-26T09:04:52Z</time></trkpt>
	<trkpt lat="52.213465" lon="-1.979085"><ele>92.000000</ele><time>2010-05-26T09:05:22Z</time></trkpt>
	<trkpt lat="52.21326167" lon="-1.97892"><ele>90.000000</ele><time>2010-05-26T09:05:52Z</time></trkpt>
	<trkpt lat="52.21300333" lon="-1.978645"><ele>87.000000</ele><time>2010-05-26T09:06:22Z</time></trkpt>
	<trkpt lat="52.21272" lon="-1.978313333"><ele>83.000000</ele><time>2010-05-26T09:06:52Z</time></trkpt>
	<trkpt lat="52.21246167" lon="-1.97848"><ele>83.000000</ele><time>2010-05-26T09:07:22Z</time></trkpt>
	<trkpt lat="52.21209333" lon="-1.978673333"><ele>85.000000</ele><time>2010-05-26T09:07:52Z</time></trkpt>
	<trkpt lat="52.21180667" lon="-1.97891"><ele>87.000000</ele><time>2010-05-26T09:08:22Z</time></trkpt>
	<trkpt lat="52.21164333" lon="-1.978985"><ele>89.000000</ele><time>2010-05-26T09:08:52Z</time></trkpt>
	<trkpt lat="52.21150167" lon="-1.978605"><ele>92.000000</ele><time>2010-05-26T09:09:22Z</time></trkpt>
	<trkpt lat="52.211325" lon="-1.978145"><ele>90.000000</ele><time>2010-05-26T09:09:52Z</time></trkpt>
	<trkpt lat="52.21122167" lon="-1.97776"><ele>84.000000</ele><time>2010-05-26T09:10:22Z</time></trkpt>
	<trkpt lat="52.21118667" lon="-1.977218333"><ele>81.000000</ele><time>2010-05-26T09:10:52Z</time></trkpt>
	<trkpt lat="52.21110167" lon="-1.976738333"><ele>77.000000</ele><time>2010-05-26T09:11:22Z</time></trkpt>
	<trkpt lat="52.21112667" lon="-1.976466667"><ele>71.000000</ele><time>2010-05-26T09:11:52Z</time></trkpt>
	<trkpt lat="52.21122167" lon="-1.976085"><ele>69.000000</ele><time>2010-05-26T09:12:22Z</time></trkpt>
	<trkpt lat="52.21120667" lon="-1.97599"><ele>67.000000</ele><time>2010-05-26T09:12:52Z</time></trkpt>
	<trkpt lat="52.21121" lon="-1.975998333"><ele>72.000000</ele><time>2010-05-26T09:13:22Z</time></trkpt>
	<trkpt lat="52.21123167" lon="-1.975923333"><ele>73.000000</ele><time>2010-05-26T09:13:52Z</time></trkpt>
	<trkpt lat="52.21117333" lon="-1.975613333"><ele>70.000000</ele><time>2010-05-26T09:14:22Z</time></trkpt>
	<trkpt lat="52.21103667" lon="-1.97551"><ele>76.000000</ele><time>2010-05-26T09:14:52Z</time></trkpt>
	<trkpt lat="52.21104" lon="-1.975453333"><ele>69.000000</ele><time>2010-05-26T09:15:22Z</time></trkpt>
	<trkpt lat="52.21093" lon="-1.975103333"><ele>73.000000</ele><time>2010-05-26T09:15:52Z</time></trkpt>
	<trkpt lat="52.21083167" lon="-1.97465"><ele>72.000000</ele><time>2010-05-26T09:16:22Z</time></trkpt>
	<trkpt lat="52.21068" lon="-1.974245"><ele>69.000000</ele><time>2010-05-26T09:16:52Z</time></trkpt>
	<trkpt lat="52.21068" lon="-1.974186667"><ele>72.000000</ele><time>2010-05-26T09:17:22Z</time></trkpt>
	<trkpt lat="52.21068167" lon="-1.974198333"><ele>74.000000</ele><time>2010-05-26T09:17:52Z</time></trkpt>
	<trkpt lat="52.21063" lon="-1.973963333"><ele>71.000000</ele><time>2010-05-26T09:18:22Z</time></trkpt>
	<trkpt lat="52.21062167" lon="-1.97375"><ele>70.000000</ele><time>2010-05-26T09:18:52Z</time></trkpt>
	<trkpt lat="52.21054667" lon="-1.973656667"><ele>70.000000</ele><time>2010-05-26T09:19:22Z</time></trkpt>
	<trkpt lat="52.21052833" lon="-1.973568333"><ele>70.000000</ele><time>2010-05-26T09:19:52Z</time></trkpt>
	<trkpt lat="52.21062" lon="-1.973208333"><ele>70.000000</ele><time>2010-05-26T09:20:22Z</time></trkpt>
	<trkpt lat="52.21065167" lon="-1.973141667"><ele>70.000000</ele><time>2010-05-26T09:20:52Z</time></trkpt>
	<trkpt lat="52.21062833" lon="-1.972876667"><ele>66.000000</ele><time>2010-05-26T09:21:22Z</time></trkpt>
	<trkpt lat="52.210625" lon="-1.972395"><ele>66.000000</ele><time>2010-05-26T09:21:52Z</time></trkpt>
	<trkpt lat="52.21064833" lon="-1.971948333"><ele>67.000000</ele><time>2010-05-26T09:22:22Z</time></trkpt>
	<trkpt lat="52.21065667" lon="-1.971733333"><ele>68.000000</ele><time>2010-05-26T09:22:52Z</time></trkpt>
	<trkpt lat="52.21065667" lon="-1.97171"><ele>68.000000</ele><time>2010-05-26T09:23:22Z</time></trkpt>
	<trkpt lat="52.21065" lon="-1.97171"><ele>69.000000</ele><time>2010-05-26T09:23:52Z</time></trkpt>
	<trkpt lat="52.21065" lon="-1.971693333"><ele>69.000000</ele><time>2010-05-26T09:24:22Z</time></trkpt>
	<trkpt lat="52.21066" lon="-1.971686667"><ele>71.000000</ele><time>2010-05-26T09:24:52Z</time></trkpt>
	<trkpt lat="52.21062667" lon="-1.971606667"><ele>71.000000</ele><time>2010-05-26T09:25:22Z</time></trkpt>
	<trkpt lat="52.21042" lon="-1.971838333"><ele>67.000000</ele><time>2010-05-26T09:25:52Z</time></trkpt>
	<trkpt lat="52.21023" lon="-1.9721"><ele>68.000000</ele><time>2010-05-26T09:26:22Z</time></trkpt>
	<trkpt lat="52.20991333" lon="-1.972433333"><ele>65.000000</ele><time>2010-05-26T09:26:52Z</time></trkpt>
	<trkpt lat="52.209665" lon="-1.97273"><ele>68.000000</ele><time>2010-05-26T09:27:22Z</time></trkpt>
	<trkpt lat="52.20952" lon="-1.973026667"><ele>68.000000</ele><time>2010-05-26T09:27:52Z</time></trkpt>
	<trkpt lat="52.20931" lon="-1.973308333"><ele>72.000000</ele><time>2010-05-26T09:28:22Z</time></trkpt>
	<trkpt lat="52.20907833" lon="-1.97358"><ele>67.000000</ele><time>2010-05-26T09:28:52Z</time></trkpt>
	<trkpt lat="52.20887833" lon="-1.9738"><ele>68.000000</ele><time>2010-05-26T09:29:22Z</time></trkpt>
	<trkpt lat="52.20882667" lon="-1.973833333"><ele>65.000000</ele><time>2010-05-26T09:29:52Z</time></trkpt>
	<trkpt lat="52.20870667" lon="-1.973968333"><ele>69.000000</ele><time>2010-05-26T09:30:22Z</time></trkpt>
	<trkpt lat="52.20837167" lon="-1.974271667"><ele>63.000000</ele><time>2010-05-26T09:30:52Z</time></trkpt>
	<trkpt lat="52.20812667" lon="-1.974541667"><ele>69.000000</ele><time>2010-05-26T09:31:22Z</time></trkpt>
	<trkpt lat="52.20789167" lon="-1.974796667"><ele>61.000000</ele><time>2010-05-26T09:31:52Z</time></trkpt>
	<trkpt lat="52.20783333" lon="-1.974848333"><ele>64.000000</ele><time>2010-05-26T09:32:22Z</time></trkpt>
	<trkpt lat="52.20780667" lon="-1.974998333"><ele>54.000000</ele><time>2010-05-26T09:32:52Z</time></trkpt>
	<trkpt lat="52.20777333" lon="-1.975428333"><ele>61.000000</ele><time>2010-05-26T09:33:22Z</time></trkpt>
	<trkpt lat="52.20753" lon="-1.975805"><ele>54.000000</ele><time>2010-05-26T09:33:52Z</time></trkpt>
	<trkpt lat="52.20723" lon="-1.97619"><ele>52.000000</ele><time>2010-05-26T09:34:22Z</time></trkpt>
	<trkpt lat="52.206965" lon="-1.976503333"><ele>52.000000</ele><time>2010-05-26T09:34:52Z</time></trkpt>
	<trkpt lat="52.20682667" lon="-1.976928333"><ele>56.000000</ele><time>2010-05-26T09:35:22Z</time></trkpt>
	<trkpt lat="52.20691167" lon="-1.97717"><ele>61.000000</ele><time>2010-05-26T09:35:52Z</time></trkpt>
	<trkpt lat="52.20694667" lon="-1.977301667"><ele>63.000000</ele><time>2010-05-26T09:36:22Z</time></trkpt>
	<trkpt lat="52.206905" lon="-1.977025"><ele>64.000000</ele><time>2010-05-26T09:36:52Z</time></trkpt>
	<trkpt lat="52.20694167" lon="-1.976628333"><ele>60.000000</ele><time>2010-05-26T09:37:22Z</time></trkpt>
	<trkpt lat="52.20716667" lon="-1.97631"><ele>68.000000</ele><time>2010-05-26T09:37:52Z</time></trkpt>
	<trkpt lat="52.20742167" lon="-1.97598"><ele>59.000000</ele><time>2010-05-26T09:38:22Z</time></trkpt>
	<trkpt lat="52.207655" lon="-1.975668333"><ele>54.000000</ele><time>2010-05-26T09:38:52Z</time></trkpt>
	<trkpt lat="52.20779333" lon="-1.975118333"><ele>60.000000</ele><time>2010-05-26T09:39:22Z</time></trkpt>
	<trkpt lat="52.207735" lon="-1.974706667"><ele>56.000000</ele><time>2010-05-26T09:39:52Z</time></trkpt>
	<trkpt lat="52.20772667" lon="-1.974525"><ele>58.000000</ele><time>2010-05-26T09:40:22Z</time></trkpt>
	<trkpt lat="52.20773667" lon="-1.973971667"><ele>62.000000</ele><time>2010-05-26T09:40:52Z</time></trkpt>
	<trkpt lat="52.20770167" lon="-1.973553333"><ele>68.000000</ele><time>2010-05-26T09:41:22Z</time></trkpt>
	<trkpt lat="52.20764333" lon="-1.973215"><ele>74.000000</ele><time>2010-05-26T09:41:52Z</time></trkpt>
	<trkpt lat="52.20758333" lon="-1.972836667"><ele>76.000000</ele><time>2010-05-26T09:42:22Z</time></trkpt>
	<trkpt lat="52.20754167" lon="-1.972435"><ele>80.000000</ele><time>2010-05-26T09:42:52Z</time></trkpt>
	<trkpt lat="52.20743167" lon="-1.972013333"><ele>78.000000</ele><time>2010-05-26T09:43:22Z</time></trkpt>
	<trkpt lat="52.20733667" lon="-1.97162"><ele>78.000000</ele><time>2010-05-26T09:43:52Z</time></trkpt>
	<trkpt lat="52.20722667" lon="-1.971233333"><ele>77.000000</ele><time>2010-05-26T09:44:22Z</time></trkpt>
	<trkpt lat="52.20708" lon="-1.970851667"><ele>74.000000</ele><time>2010-05-26T09:44:52Z</time></trkpt>
	<trkpt lat="52.206995" lon="-1.970496667"><ele>72.000000</ele><time>2010-05-26T09:45:22Z</time></trkpt>
	<trkpt lat="52.206825" lon="-1.970198333"><ele>70.000000</ele><time>2010-05-26T09:45:52Z</time></trkpt>
	<trkpt lat="52.20672833" lon="-1.970116667"><ele>70.000000</ele><time>2010-05-26T09:46:22Z</time></trkpt>
	<trkpt lat="52.20649333" lon="-1.969758333"><ele>67.000000</ele><time>2010-05-26T09:46:52Z</time></trkpt>
	<trkpt lat="52.20626833" lon="-1.96941"><ele>63.000000</ele><time>2010-05-26T09:47:22Z</time></trkpt>
	<trkpt lat="52.20603833" lon="-1.969031667"><ele>61.000000</ele><time>2010-05-26T09:47:52Z</time></trkpt>
	<trkpt lat="52.20582" lon="-1.968656667"><ele>60.000000</ele><time>2010-05-26T09:48:22Z</time></trkpt>
	<trkpt lat="52.20560167" lon="-1.968268333"><ele>59.000000</ele><time>2010-05-26T09:48:52Z</time></trkpt>
	<trkpt lat="52.20537667" lon="-1.968033333"><ele>60.000000</ele><time>2010-05-26T09:49:22Z</time></trkpt>
	<trkpt lat="52.20517" lon="-1.968365"><ele>58.000000</ele><time>2010-05-26T09:49:52Z</time></trkpt>
	<trkpt lat="52.20497667" lon="-1.968385"><ele>60.000000</ele><time>2010-05-26T09:50:22Z</time></trkpt>
	<trkpt lat="52.20474333" lon="-1.968031667"><ele>60.000000</ele><time>2010-05-26T09:50:52Z</time></trkpt>
	<trkpt lat="52.20448" lon="-1.967803333"><ele>60.000000</ele><time>2010-05-26T09:51:22Z</time></trkpt>
	<trkpt lat="52.20417667" lon="-1.967708333"><ele>59.000000</ele><time>2010-05-26T09:51:52Z</time></trkpt>
	<trkpt lat="52.20396333" lon="-1.967636667"><ele>69.000000</ele><time>2010-05-26T09:52:22Z</time></trkpt>
	<trkpt lat="52.20365" lon="-1.967595"><ele>66.000000</ele><time>2010-05-26T09:52:52Z</time></trkpt>
	<trkpt lat="52.203605" lon="-1.967465"><ele>65.000000</ele><time>2010-05-26T09:53:22Z</time></trkpt>
	<trkpt lat="52.20354" lon="-1.967425"><ele>60.000000</ele><time>2010-05-26T09:53:52Z</time></trkpt>
	<trkpt lat="52.203515" lon="-1.967458333"><ele>65.000000</ele><time>2010-05-26T09:54:22Z</time></trkpt>
	<trkpt lat="52.20346833" lon="-1.967286667"><ele>70.000000</ele><time>2010-05-26T09:54:52Z</time></trkpt>
	<trkpt lat="52.20334" lon="-1.966941667"><ele>76.000000</ele><time>2010-05-26T09:55:22Z</time></trkpt>
	<trkpt lat="52.20312833" lon="-1.9666"><ele>72.000000</ele><time>2010-05-26T09:55:52Z</time></trkpt>
	<trkpt lat="52.20297667" lon="-1.966216667"><ele>73.000000</ele><time>2010-05-26T09:56:22Z</time></trkpt>
	<trkpt lat="52.202905" lon="-1.966045"><ele>73.000000</ele><time>2010-05-26T09:56:52Z</time></trkpt>
	<trkpt lat="52.20276" lon="-1.965773333"><ele>74.000000</ele><time>2010-05-26T09:57:22Z</time></trkpt>
	<trkpt lat="52.20259" lon="-1.965585"><ele>71.000000</ele><time>2010-05-26T09:57:52Z</time></trkpt>
	<trkpt lat="52.202535" lon="-1.965488333"><ele>70.000000</ele><time>2010-05-26T09:58:22Z</time></trkpt>
	<trkpt lat="52.20226833" lon="-1.965131667"><ele>62.000000</ele><time>2010-05-26T09:58:52Z</time></trkpt>
	<trkpt lat="52.20204" lon="-1.964803333"><ele>60.000000</ele><time>2010-05-26T09:59:22Z</time></trkpt>
	<trkpt lat="52.20182" lon="-1.964586667"><ele>57.000000</ele><time>2010-05-26T09:59:52Z</time></trkpt>
	<trkpt lat="52.20165833" lon="-1.964503333"><ele>56.000000</ele><time>2010-05-26T10:00:22Z</time></trkpt>
	<trkpt lat="52.20141333" lon="-1.964355"><ele>54.000000</ele><time>2010-05-26T10:00:52Z</time></trkpt>
	<trkpt lat="52.20116667" lon="-1.964183333"><ele>54.000000</ele><time>2010-05-26T10:01:22Z</time></trkpt>
	<trkpt lat="52.20109167" lon="-1.964146667"><ele>55.000000</ele><time>2010-05-26T10:01:52Z</time></trkpt>
	<trkpt lat="52.20107167" lon="-1.9641"><ele>56.000000</ele><time>2010-05-26T10:02:22Z</time></trkpt>
	<trkpt lat="52.20103167" lon="-1.964101667"><ele>53.000000</ele><time>2010-05-26T10:02:52Z</time></trkpt>
	<trkpt lat="52.20086167" lon="-1.96426"><ele>53.000000</ele><time>2010-05-26T10:03:22Z</time></trkpt>
	<trkpt lat="52.20078167" lon="-1.964346667"><ele>54.000000</ele><time>2010-05-26T10:03:52Z</time></trkpt>
	<trkpt lat="52.20077" lon="-1.964325"><ele>53.000000</ele><time>2010-05-26T10:04:22Z</time></trkpt>
	<trkpt lat="52.20076" lon="-1.964315"><ele>51.000000</ele><time>2010-05-26T10:04:52Z</time></trkpt>
	<trkpt lat="52.20076333" lon="-1.964308333"><ele>51.000000</ele><time>2010-05-26T10:05:22Z</time></trkpt>
	<trkpt lat="52.20076167" lon="-1.964301667"><ele>50.000000</ele><time>2010-05-26T10:05:52Z</time></trkpt>
	<trkpt lat="52.20076167" lon="-1.964303333"><ele>50.000000</ele><time>2010-05-26T10:06:22Z</time></trkpt>
	<trkpt lat="52.20076333" lon="-1.96431"><ele>48.000000</ele><time>2010-05-26T10:06:52Z</time></trkpt>
	<trkpt lat="52.20076667" lon="-1.964328333"><ele>46.000000</ele><time>2010-05-26T10:07:22Z</time></trkpt>
	<trkpt lat="52.20076667" lon="-1.964351667"><ele>48.000000</ele><time>2010-05-26T10:07:52Z</time></trkpt>
	<trkpt lat="52.20078667" lon="-1.964346667"><ele>48.000000</ele><time>2010-05-26T10:08:22Z</time></trkpt>
	<trkpt lat="52.20079333" lon="-1.96434"><ele>47.000000</ele><time>2010-05-26T10:08:52Z</time></trkpt>
	<trkpt lat="52.20079667" lon="-1.964335"><ele>48.000000</ele><time>2010-05-26T10:09:22Z</time></trkpt>
	<trkpt lat="52.20079667" lon="-1.964331667"><ele>50.000000</ele><time>2010-05-26T10:09:52Z</time></trkpt>
	<trkpt lat="52.20079667" lon="-1.964326667"><ele>51.000000</ele><time>2010-05-26T10:10:22Z</time></trkpt>
	<trkpt lat="52.20078167" lon="-1.964313333"><ele>52.000000</ele><time>2010-05-26T10:10:52Z</time></trkpt>
	<trkpt lat="52.20078167" lon="-1.964316667"><ele>53.000000</ele><time>2010-05-26T10:11:22Z</time></trkpt>
	<trkpt lat="52.20079" lon="-1.964311667"><ele>54.000000</ele><time>2010-05-26T10:11:52Z</time></trkpt>
	<trkpt lat="52.20075833" lon="-1.96431"><ele>55.000000</ele><time>2010-05-26T10:12:22Z</time></trkpt>
	<trkpt lat="52.20077" lon="-1.964311667"><ele>58.000000</ele><time>2010-05-26T10:12:44Z</time></trkpt>
	<trkpt lat="52.200785" lon="-1.9643"><ele>59.000000</ele><time>2010-05-26T10:12:52Z</time></trkpt>
	<trkpt lat="52.20078833" lon="-1.964301667"><ele>59.000000</ele><time>2010-05-26T10:12:56Z</time></trkpt>
	<trkpt lat="52.20078" lon="-1.964328333"><ele>57.000000</ele><time>2010-05-26T10:13:22Z</time></trkpt>
	<trkpt lat="52.20076333" lon="-1.964336667"><ele>58.000000</ele><time>2010-05-26T10:13:52Z</time></trkpt>
	<trkpt lat="52.20076333" lon="-1.964331667"><ele>60.000000</ele><time>2010-05-26T10:14:22Z</time></trkpt>
	<trkpt lat="52.20072167" lon="-1.964298333"><ele>61.000000</ele><time>2010-05-26T10:14:52Z</time></trkpt>
	<trkpt lat="52.20051667" lon="-1.964018333"><ele>60.000000</ele><time>2010-05-26T10:15:22Z</time></trkpt>
	<trkpt lat="52.20025333" lon="-1.963746667"><ele>61.000000</ele><time>2010-05-26T10:15:52Z</time></trkpt>
	<trkpt lat="52.19996833" lon="-1.963451667"><ele>61.000000</ele><time>2010-05-26T10:16:22Z</time></trkpt>
	<trkpt lat="52.19968" lon="-1.963173333"><ele>61.000000</ele><time>2010-05-26T10:16:52Z</time></trkpt>
	<trkpt lat="52.19939833" lon="-1.9629"><ele>62.000000</ele><time>2010-05-26T10:17:22Z</time></trkpt>
	<trkpt lat="52.19928833" lon="-1.962798333"><ele>61.000000</ele><time>2010-05-26T10:17:52Z</time></trkpt>
	<trkpt lat="52.19917" lon="-1.962563333"><ele>61.000000</ele><time>2010-05-26T10:18:22Z</time></trkpt>
	<trkpt lat="52.19888667" lon="-1.962288333"><ele>62.000000</ele><time>2010-05-26T10:18:52Z</time></trkpt>
	<trkpt lat="52.198725" lon="-1.962138333"><ele>63.000000</ele><time>2010-05-26T10:19:22Z</time></trkpt>
	<trkpt lat="52.19875" lon="-1.96213"><ele>64.000000</ele><time>2010-05-26T10:19:52Z</time></trkpt>
	<trkpt lat="52.19892333" lon="-1.962325"><ele>61.000000</ele><time>2010-05-26T10:20:22Z</time></trkpt>
	<trkpt lat="52.19925833" lon="-1.962655"><ele>60.000000</ele><time>2010-05-26T10:20:52Z</time></trkpt>
	<trkpt lat="52.199315" lon="-1.962795"><ele>60.000000</ele><time>2010-05-26T10:21:22Z</time></trkpt>
	<trkpt lat="52.19930833" lon="-1.9628"><ele>60.000000</ele><time>2010-05-26T10:21:52Z</time></trkpt>
	<trkpt lat="52.19929333" lon="-1.962808333"><ele>59.000000</ele><time>2010-05-26T10:22:22Z</time></trkpt>
	<trkpt lat="52.19922333" lon="-1.962756667"><ele>60.000000</ele><time>2010-05-26T10:22:52Z</time></trkpt>
	<trkpt lat="52.19897333" lon="-1.96251"><ele>61.000000</ele><time>2010-05-26T10:23:22Z</time></trkpt>
	<trkpt lat="52.19871333" lon="-1.9623"><ele>62.000000</ele><time>2010-05-26T10:23:52Z</time></trkpt>
	<trkpt lat="52.1986" lon="-1.962185"><ele>62.000000</ele><time>2010-05-26T10:24:22Z</time></trkpt>
	<trkpt lat="52.19860333" lon="-1.962135"><ele>63.000000</ele><time>2010-05-26T10:24:52Z</time></trkpt>
	<trkpt lat="52.19839" lon="-1.961943333"><ele>64.000000</ele><time>2010-05-26T10:25:22Z</time></trkpt>
	<trkpt lat="52.19812167" lon="-1.961693333"><ele>66.000000</ele><time>2010-05-26T10:25:52Z</time></trkpt>
	<trkpt lat="52.19791667" lon="-1.9615"><ele>66.000000</ele><time>2010-05-26T10:26:22Z</time></trkpt>
	<trkpt lat="52.19790833" lon="-1.96149"><ele>66.000000</ele><time>2010-05-26T10:26:52Z</time></trkpt>
	<trkpt lat="52.19766333" lon="-1.96124"><ele>66.000000</ele><time>2010-05-26T10:27:22Z</time></trkpt>
	<trkpt lat="52.19736" lon="-1.960941667"><ele>66.000000</ele><time>2010-05-26T10:27:52Z</time></trkpt>
	<trkpt lat="52.19707833" lon="-1.960636667"><ele>67.000000</ele><time>2010-05-26T10:28:22Z</time></trkpt>
	<trkpt lat="52.19681" lon="-1.960351667"><ele>68.000000</ele><time>2010-05-26T10:28:52Z</time></trkpt>
	<trkpt lat="52.19655333" lon="-1.960235"><ele>68.000000</ele><time>2010-05-26T10:29:22Z</time></trkpt>
	<trkpt lat="52.19623333" lon="-1.960095"><ele>68.000000</ele><time>2010-05-26T10:29:52Z</time></trkpt>
	<trkpt lat="52.19589333" lon="-1.959923333"><ele>68.000000</ele><time>2010-05-26T10:30:22Z</time></trkpt>
	<trkpt lat="52.19555" lon="-1.959715"><ele>67.000000</ele><time>2010-05-26T10:30:52Z</time></trkpt>
	<trkpt lat="52.19523" lon="-1.95956"><ele>67.000000</ele><time>2010-05-26T10:31:22Z</time></trkpt>
	<trkpt lat="52.19503167" lon="-1.959458333"><ele>65.000000</ele><time>2010-05-26T10:31:52Z</time></trkpt>
	<trkpt lat="52.19501167" lon="-1.959451667"><ele>65.000000</ele><time>2010-05-26T10:32:22Z</time></trkpt>
	<trkpt lat="52.19491667" lon="-1.959401667"><ele>65.000000</ele><time>2010-05-26T10:32:52Z</time></trkpt>
	<trkpt lat="52.19455333" lon="-1.959123333"><ele>65.000000</ele><time>2010-05-26T10:33:22Z</time></trkpt>
	<trkpt lat="52.19433333" lon="-1.959531667"><ele>72.000000</ele><time>2010-05-26T10:33:52Z</time></trkpt>
	<trkpt lat="52.19415667" lon="-1.96008"><ele>76.000000</ele><time>2010-05-26T10:34:22Z</time></trkpt>
	<trkpt lat="52.19385833" lon="-1.960458333"><ele>79.000000</ele><time>2010-05-26T10:34:52Z</time></trkpt>
	<trkpt lat="52.19349" lon="-1.9607"><ele>87.000000</ele><time>2010-05-26T10:35:22Z</time></trkpt>
	<trkpt lat="52.19315333" lon="-1.961121667"><ele>78.000000</ele><time>2010-05-26T10:35:52Z</time></trkpt>
	<trkpt lat="52.19311667" lon="-1.961561667"><ele>73.000000</ele><time>2010-05-26T10:36:22Z</time></trkpt>
	<trkpt lat="52.19306" lon="-1.961593333"><ele>82.000000</ele><time>2010-05-26T10:36:52Z</time></trkpt>
	<trkpt lat="52.19305" lon="-1.962015"><ele>80.000000</ele><time>2010-05-26T10:37:22Z</time></trkpt>
	<trkpt lat="52.19299333" lon="-1.962133333"><ele>81.000000</ele><time>2010-05-26T10:37:52Z</time></trkpt>
	<trkpt lat="52.19297333" lon="-1.962191667"><ele>72.000000</ele><time>2010-05-26T10:38:22Z</time></trkpt>
	<trkpt lat="52.19288667" lon="-1.962585"><ele>83.000000</ele><time>2010-05-26T10:38:52Z</time></trkpt>
	<trkpt lat="52.19279333" lon="-1.962891667"><ele>78.000000</ele><time>2010-05-26T10:39:22Z</time></trkpt>
	<trkpt lat="52.19261167" lon="-1.96327"><ele>79.000000</ele><time>2010-05-26T10:39:52Z</time></trkpt>
	<trkpt lat="52.192445" lon="-1.96371"><ele>79.000000</ele><time>2010-05-26T10:40:22Z</time></trkpt>
	<trkpt lat="52.192235" lon="-1.964141667"><ele>77.000000</ele><time>2010-05-26T10:40:52Z</time></trkpt>
	<trkpt lat="52.19202667" lon="-1.964585"><ele>81.000000</ele><time>2010-05-26T10:41:22Z</time></trkpt>
	<trkpt lat="52.19198" lon="-1.964713333"><ele>61.000000</ele><time>2010-05-26T10:41:52Z</time></trkpt>
	<trkpt lat="52.191995" lon="-1.9647"><ele>56.000000</ele><time>2010-05-26T10:42:22Z</time></trkpt>
	<trkpt lat="52.19199" lon="-1.964703333"><ele>58.000000</ele><time>2010-05-26T10:42:52Z</time></trkpt>
	<trkpt lat="52.19198" lon="-1.964706667"><ele>59.000000</ele><time>2010-05-26T10:43:22Z</time></trkpt>
	<trkpt lat="52.19200667" lon="-1.964683333"><ele>51.000000</ele><time>2010-05-26T10:43:52Z</time></trkpt>
	<trkpt lat="52.19200667" lon="-1.96467"><ele>51.000000</ele><time>2010-05-26T10:44:22Z</time></trkpt>
	<trkpt lat="52.19193" lon="-1.964783333"><ele>64.000000</ele><time>2010-05-26T10:44:52Z</time></trkpt>
	<trkpt lat="52.19152667" lon="-1.965631667"><ele>71.000000</ele><time>2010-05-26T10:45:22Z</time></trkpt>
	<trkpt lat="52.191195" lon="-1.966696667"><ele>78.000000</ele><time>2010-05-26T10:45:52Z</time></trkpt>
	<trkpt lat="52.190995" lon="-1.9673"><ele>78.000000</ele><time>2010-05-26T10:46:22Z</time></trkpt>
	<trkpt lat="52.19096" lon="-1.967538333"><ele>82.000000</ele><time>2010-05-26T10:46:52Z</time></trkpt>
	<trkpt lat="52.190665" lon="-1.967611667"><ele>96.000000</ele><time>2010-05-26T10:47:22Z</time></trkpt>
	<trkpt lat="52.19029333" lon="-1.96777"><ele>97.000000</ele><time>2010-05-26T10:47:52Z</time></trkpt>
	<trkpt lat="52.19003667" lon="-1.968021667"><ele>90.000000</ele><time>2010-05-26T10:48:22Z</time></trkpt>
	<trkpt lat="52.189875" lon="-1.968366667"><ele>91.000000</ele><time>2010-05-26T10:48:52Z</time></trkpt>
	<trkpt lat="52.19003" lon="-1.968868333"><ele>86.000000</ele><time>2010-05-26T10:49:22Z</time></trkpt>
	<trkpt lat="52.19023333" lon="-1.969425"><ele>85.000000</ele><time>2010-05-26T10:49:52Z</time></trkpt>
	<trkpt lat="52.19038" lon="-1.969998333"><ele>81.000000</ele><time>2010-05-26T10:50:22Z</time></trkpt>
	<trkpt lat="52.19049333" lon="-1.970581667"><ele>75.000000</ele><time>2010-05-26T10:50:52Z</time></trkpt>
	<trkpt lat="52.19061667" lon="-1.971151667"><ele>75.000000</ele><time>2010-05-26T10:51:22Z</time></trkpt>
	<trkpt lat="52.19071833" lon="-1.971761667"><ele>71.000000</ele><time>2010-05-26T10:51:52Z</time></trkpt>
	<trkpt lat="52.190815" lon="-1.972315"><ele>69.000000</ele><time>2010-05-26T10:52:22Z</time></trkpt>
	<trkpt lat="52.19082333" lon="-1.972366667"><ele>69.000000</ele><time>2010-05-26T10:52:52Z</time></trkpt>
	<trkpt lat="52.19085167" lon="-1.972338333"><ele>69.000000</ele><time>2010-05-26T10:53:22Z</time></trkpt>
	<trkpt lat="52.19101167" lon="-1.972341667"><ele>68.000000</ele><time>2010-05-26T10:53:52Z</time></trkpt>
	<trkpt lat="52.19115167" lon="-1.972436667"><ele>68.000000</ele><time>2010-05-26T10:54:22Z</time></trkpt>
	<trkpt lat="52.19131" lon="-1.972491667"><ele>71.000000</ele><time>2010-05-26T10:54:52Z</time></trkpt>
	<trkpt lat="52.191545" lon="-1.972615"><ele>69.000000</ele><time>2010-05-26T10:55:22Z</time></trkpt>
	<trkpt lat="52.1916" lon="-1.972621667"><ele>68.000000</ele><time>2010-05-26T10:55:52Z</time></trkpt>
	<trkpt lat="52.191825" lon="-1.972746667"><ele>66.000000</ele><time>2010-05-26T10:56:22Z</time></trkpt>
	<trkpt lat="52.19213167" lon="-1.97294"><ele>64.000000</ele><time>2010-05-26T10:56:52Z</time></trkpt>
	<trkpt lat="52.19242833" lon="-1.973128333"><ele>63.000000</ele><time>2010-05-26T10:57:22Z</time></trkpt>
	<trkpt lat="52.19273" lon="-1.973293333"><ele>62.000000</ele><time>2010-05-26T10:57:52Z</time></trkpt>
	<trkpt lat="52.19303833" lon="-1.973483333"><ele>61.000000</ele><time>2010-05-26T10:58:22Z</time></trkpt>
	<trkpt lat="52.19336" lon="-1.973683333"><ele>60.000000</ele><time>2010-05-26T10:58:52Z</time></trkpt>
	<trkpt lat="52.193675" lon="-1.973881667"><ele>60.000000</ele><time>2010-05-26T10:59:22Z</time></trkpt>
	<trkpt lat="52.19396333" lon="-1.974161667"><ele>59.000000</ele><time>2010-05-26T10:59:52Z</time></trkpt>
	<trkpt lat="52.194" lon="-1.974228333"><ele>59.000000</ele><time>2010-05-26T11:00:22Z</time></trkpt>
	<trkpt lat="52.19411" lon="-1.974321667"><ele>61.000000</ele><time>2010-05-26T11:00:52Z</time></trkpt>
	<trkpt lat="52.194445" lon="-1.974596667"><ele>59.000000</ele><time>2010-05-26T11:01:22Z</time></trkpt>
	<trkpt lat="52.19478167" lon="-1.974813333"><ele>58.000000</ele><time>2010-05-26T11:01:52Z</time></trkpt>
	<trkpt lat="52.19509" lon="-1.974998333"><ele>56.000000</ele><time>2010-05-26T11:02:22Z</time></trkpt>
	<trkpt lat="52.19540167" lon="-1.97514"><ele>55.000000</ele><time>2010-05-26T11:02:52Z</time></trkpt>
	<trkpt lat="52.19572333" lon="-1.975316667"><ele>55.000000</ele><time>2010-05-26T11:03:22Z</time></trkpt>
	<trkpt lat="52.19602833" lon="-1.975485"><ele>55.000000</ele><time>2010-05-26T11:03:52Z</time></trkpt>
	<trkpt lat="52.19622167" lon="-1.97562"><ele>54.000000</ele><time>2010-05-26T11:04:22Z</time></trkpt>
	<trkpt lat="52.196235" lon="-1.975636667"><ele>56.000000</ele><time>2010-05-26T11:04:52Z</time></trkpt>
	<trkpt lat="52.19627167" lon="-1.975691667"><ele>57.000000</ele><time>2010-05-26T11:05:22Z</time></trkpt>
	<trkpt lat="52.19636667" lon="-1.975668333"><ele>59.000000</ele><time>2010-05-26T11:05:52Z</time></trkpt>
	<trkpt lat="52.19656" lon="-1.975886667"><ele>62.000000</ele><time>2010-05-26T11:06:22Z</time></trkpt>
	<trkpt lat="52.196685" lon="-1.976075"><ele>63.000000</ele><time>2010-05-26T11:06:52Z</time></trkpt>
	<trkpt lat="52.19676167" lon="-1.976246667"><ele>69.000000</ele><time>2010-05-26T11:07:22Z</time></trkpt>
	<trkpt lat="52.19683167" lon="-1.976281667"><ele>64.000000</ele><time>2010-05-26T11:07:52Z</time></trkpt>
	<trkpt lat="52.19705833" lon="-1.976175"><ele>68.000000</ele><time>2010-05-26T11:08:22Z</time></trkpt>
	<trkpt lat="52.19733667" lon="-1.976361667"><ele>69.000000</ele><time>2010-05-26T11:08:52Z</time></trkpt>
	<trkpt lat="52.19766" lon="-1.976511667"><ele>68.000000</ele><time>2010-05-26T11:09:22Z</time></trkpt>
	<trkpt lat="52.197985" lon="-1.97664"><ele>68.000000</ele><time>2010-05-26T11:09:52Z</time></trkpt>
	<trkpt lat="52.19817667" lon="-1.976546667"><ele>70.000000</ele><time>2010-05-26T11:10:22Z</time></trkpt>
	<trkpt lat="52.19846167" lon="-1.976658333"><ele>68.000000</ele><time>2010-05-26T11:10:52Z</time></trkpt>
	<trkpt lat="52.19879333" lon="-1.9768"><ele>71.000000</ele><time>2010-05-26T11:11:22Z</time></trkpt>
	<trkpt lat="52.19911667" lon="-1.976975"><ele>73.000000</ele><time>2010-05-26T11:11:52Z</time></trkpt>
	<trkpt lat="52.1992" lon="-1.977025"><ele>74.000000</ele><time>2010-05-26T11:12:22Z</time></trkpt>
	<trkpt lat="52.19956667" lon="-1.977228333"><ele>73.000000</ele><time>2010-05-26T11:12:52Z</time></trkpt>
	<trkpt lat="52.19992833" lon="-1.977406667"><ele>73.000000</ele><time>2010-05-26T11:13:22Z</time></trkpt>
	<trkpt lat="52.200265" lon="-1.977575"><ele>74.000000</ele><time>2010-05-26T11:13:52Z</time></trkpt>
	<trkpt lat="52.20057167" lon="-1.977755"><ele>72.000000</ele><time>2010-05-26T11:14:22Z</time></trkpt>
	<trkpt lat="52.20084" lon="-1.977665"><ele>73.000000</ele><time>2010-05-26T11:14:52Z</time></trkpt>
	<trkpt lat="52.20115333" lon="-1.977555"><ele>73.000000</ele><time>2010-05-26T11:15:22Z</time></trkpt>
	<trkpt lat="52.20147167" lon="-1.977631667"><ele>71.000000</ele><time>2010-05-26T11:15:52Z</time></trkpt>
	<trkpt lat="52.201775" lon="-1.977706667"><ele>70.000000</ele><time>2010-05-26T11:16:22Z</time></trkpt>
	<trkpt lat="52.20206667" lon="-1.977783333"><ele>70.000000</ele><time>2010-05-26T11:16:52Z</time></trkpt>
	<trkpt lat="52.20221333" lon="-1.977831667"><ele>71.000000</ele><time>2010-05-26T11:17:22Z</time></trkpt>
	<trkpt lat="52.20229167" lon="-1.977883333"><ele>70.000000</ele><time>2010-05-26T11:17:52Z</time></trkpt>
	<trkpt lat="52.20236667" lon="-1.97793"><ele>71.000000</ele><time>2010-05-26T11:18:22Z</time></trkpt>
	<trkpt lat="52.20242833" lon="-1.977926667"><ele>73.000000</ele><time>2010-05-26T11:18:52Z</time></trkpt>
	<trkpt lat="52.20272333" lon="-1.977783333"><ele>74.000000</ele><time>2010-05-26T11:19:22Z</time></trkpt>
	<trkpt lat="52.20303" lon="-1.977583333"><ele>74.000000</ele><time>2010-05-26T11:19:52Z</time></trkpt>
	<trkpt lat="52.20329667" lon="-1.97733"><ele>76.000000</ele><time>2010-05-26T11:20:22Z</time></trkpt>
	<trkpt lat="52.20359" lon="-1.97704"><ele>75.000000</ele><time>2010-05-26T11:20:52Z</time></trkpt>
	<trkpt lat="52.20390667" lon="-1.97678"><ele>73.000000</ele><time>2010-05-26T11:21:22Z</time></trkpt>
	<trkpt lat="52.20420333" lon="-1.976621667"><ele>72.000000</ele><time>2010-05-26T11:21:52Z</time></trkpt>
	<trkpt lat="52.20448" lon="-1.976401667"><ele>70.000000</ele><time>2010-05-26T11:22:22Z</time></trkpt>
	<trkpt lat="52.20470667" lon="-1.976105"><ele>68.000000</ele><time>2010-05-26T11:22:52Z</time></trkpt>
	<trkpt lat="52.20494833" lon="-1.975783333"><ele>65.000000</ele><time>2010-05-26T11:23:22Z</time></trkpt>
	<trkpt lat="52.20525667" lon="-1.9758"><ele>62.000000</ele><time>2010-05-26T11:23:52Z</time></trkpt>
	<trkpt lat="52.20551333" lon="-1.976105"><ele>65.000000</ele><time>2010-05-26T11:24:22Z</time></trkpt>
	<trkpt lat="52.20573" lon="-1.976516667"><ele>65.000000</ele><time>2010-05-26T11:24:52Z</time></trkpt>
	<trkpt lat="52.20592667" lon="-1.976741667"><ele>65.000000</ele><time>2010-05-26T11:25:22Z</time></trkpt>
	<trkpt lat="52.206165" lon="-1.97695"><ele>64.000000</ele><time>2010-05-26T11:25:52Z</time></trkpt>
	<trkpt lat="52.20647" lon="-1.976938333"><ele>65.000000</ele><time>2010-05-26T11:26:22Z</time></trkpt>
	<trkpt lat="52.20669667" lon="-1.976783333"><ele>64.000000</ele><time>2010-05-26T11:26:52Z</time></trkpt>
	<trkpt lat="52.20682" lon="-1.97681"><ele>67.000000</ele><time>2010-05-26T11:27:22Z</time></trkpt>
	<trkpt lat="52.20694167" lon="-1.977216667"><ele>69.000000</ele><time>2010-05-26T11:27:52Z</time></trkpt>
	<trkpt lat="52.20723833" lon="-1.977246667"><ele>70.000000</ele><time>2010-05-26T11:28:22Z</time></trkpt>
	<trkpt lat="52.20754167" lon="-1.977053333"><ele>71.000000</ele><time>2010-05-26T11:28:52Z</time></trkpt>
	<trkpt lat="52.20785833" lon="-1.97703"><ele>71.000000</ele><time>2010-05-26T11:29:22Z</time></trkpt>
	<trkpt lat="52.20814667" lon="-1.977181667"><ele>74.000000</ele><time>2010-05-26T11:29:52Z</time></trkpt>
	<trkpt lat="52.208475" lon="-1.977295"><ele>72.000000</ele><time>2010-05-26T11:30:22Z</time></trkpt>
	<trkpt lat="52.20872833" lon="-1.977428333"><ele>75.000000</ele><time>2010-05-26T11:30:52Z</time></trkpt>
	<trkpt lat="52.20898" lon="-1.977546667"><ele>78.000000</ele><time>2010-05-26T11:31:22Z</time></trkpt>
	<trkpt lat="52.209255" lon="-1.977683333"><ele>80.000000</ele><time>2010-05-26T11:31:52Z</time></trkpt>
	<trkpt lat="52.20956167" lon="-1.977816667"><ele>78.000000</ele><time>2010-05-26T11:32:22Z</time></trkpt>
	<trkpt lat="52.20986833" lon="-1.977898333"><ele>77.000000</ele><time>2010-05-26T11:32:52Z</time></trkpt>
	<trkpt lat="52.21017667" lon="-1.977895"><ele>77.000000</ele><time>2010-05-26T11:33:22Z</time></trkpt>
	<trkpt lat="52.21047167" lon="-1.977838333"><ele>78.000000</ele><time>2010-05-26T11:33:52Z</time></trkpt>
	<trkpt lat="52.21067" lon="-1.977775"><ele>79.000000</ele><time>2010-05-26T11:34:22Z</time></trkpt>
	<trkpt lat="52.21096333" lon="-1.977813333"><ele>80.000000</ele><time>2010-05-26T11:34:52Z</time></trkpt>
	<trkpt lat="52.21124" lon="-1.977878333"><ele>88.000000</ele><time>2010-05-26T11:35:22Z</time></trkpt>
	<trkpt lat="52.21137833" lon="-1.978323333"><ele>94.000000</ele><time>2010-05-26T11:35:52Z</time></trkpt>
	<trkpt lat="52.21152333" lon="-1.978645"><ele>90.000000</ele><time>2010-05-26T11:36:22Z</time></trkpt>
	<trkpt lat="52.21169333" lon="-1.978926667"><ele>87.000000</ele><time>2010-05-26T11:36:52Z</time></trkpt>
	<trkpt lat="52.21170833" lon="-1.978968333"><ele>81.000000</ele><time>2010-05-26T11:37:22Z</time></trkpt>
	<trkpt lat="52.211925" lon="-1.97878"><ele>91.000000</ele><time>2010-05-26T11:37:52Z</time></trkpt>
	<trkpt lat="52.212285" lon="-1.978523333"><ele>86.000000</ele><time>2010-05-26T11:38:22Z</time></trkpt>
	<trkpt lat="52.212525" lon="-1.978366667"><ele>81.000000</ele><time>2010-05-26T11:38:52Z</time></trkpt>
	<trkpt lat="52.21271" lon="-1.978263333"><ele>83.000000</ele><time>2010-05-26T11:39:22Z</time></trkpt>
	<trkpt lat="52.21289333" lon="-1.978588333"><ele>88.000000</ele><time>2010-05-26T11:39:52Z</time></trkpt>
	<trkpt lat="52.21314167" lon="-1.978841667"><ele>86.000000</ele><time>2010-05-26T11:40:22Z</time></trkpt>
	<trkpt lat="52.21340167" lon="-1.979081667"><ele>88.000000</ele><time>2010-05-26T11:40:52Z</time></trkpt>
	<trkpt lat="52.21361167" lon="-1.978995"><ele>91.000000</ele><time>2010-05-26T11:41:22Z</time></trkpt>
	<trkpt lat="52.21374667" lon="-1.978986667"><ele>96.000000</ele><time>2010-05-26T11:41:52Z</time></trkpt>
	<trkpt lat="52.21378667" lon="-1.979258333"><ele>101.000000</ele><time>2010-05-26T11:42:22Z</time></trkpt>
	<trkpt lat="52.21366167" lon="-1.97963"><ele>99.000000</ele><time>2010-05-26T11:42:52Z</time></trkpt>
	<trkpt lat="52.21354667" lon="-1.979605"><ele>98.000000</ele><time>2010-05-26T11:43:22Z</time></trkpt>
	<trkpt lat="52.21349667" lon="-1.979558333"><ele>91.000000</ele><time>2010-05-26T11:43:52Z</time></trkpt>
</trkseg>
</trk>
</gpx>
